DCA weather

Ronald Reagan Washington National Airport
Washington, District of Columbia, United States

Public forecast

Using degrees Fahrenheit for public forecast. Weather courtesy of forecast.io.

METAR (pilot weather report)

Retrieved 2018/04/26 19:52 UTC (44 minutes ago):

KDCA 261952Z 30007KT 10SM FEW250 22/02 A2984 RMK AO2 SLP104 T02170022

TAF (pilot weather forecast)

Retrieved 2018/04/26 18:24 UTC (2 hours ago):

TAF KDCA 261723Z 2618/2724 33012G20KT P6SM SKC FM262300 01006KT P6SM BKN150 FM270000 08005KT P6SM OVC150 FM270600 11004KT P6SM -RA OVC060 FM271200 06006KT 1 1/2SM -RA BR OVC008 FM271500 05006KT 3SM BR OVC008 FM271800 01006KT P6SM OVC015 FM272000 34006KT P6SM BKN250